createdAt,value
2023-05-12T00:02:21.355Z,98838.28
2023-05-12T00:05:07.309Z,98839.06
2023-05-12T00:07:52.746Z,98839.06
2023-05-12T00:10:38.214Z,98835.50
2023-05-12T00:13:24.141Z,98841.84
2023-05-12T00:16:09.935Z,98847.41
2023-05-12T00:18:55.473Z,98847.41
2023-05-12T00:21:41.577Z,98849.41
2023-05-12T00:24:27.213Z,98845.81
2023-05-12T00:27:13.960Z,98847.03
2023-05-12T00:29:59.653Z,98842.25
2023-05-12T00:32:44.911Z,98839.50
2023-05-12T00:35:30.209Z,98841.50
2023-05-12T00:38:15.654Z,98841.50
2023-05-12T00:41:01.551Z,98847.03
2023-05-12T00:43:46.929Z,98843.03
2023-05-12T00:46:32.559Z,98847.81
2023-05-12T00:49:18.461Z,98850.19
2023-05-12T00:52:04.672Z,98847.03
2023-05-12T00:54:49.971Z,98845.03
2023-05-12T00:57:35.701Z,98842.25
2023-05-12T01:00:22.518Z,98846.28
2023-05-12T01:03:08.920Z,98840.72
2023-05-12T01:06:13.452Z,98843.50
2023-05-12T01:08:59.576Z,98840.72
2023-05-12T01:11:44.850Z,98836.72
2023-05-12T01:14:30.657Z,98835.94
2023-05-12T01:17:23.906Z,98839.91
2023-05-12T01:20:12.487Z,98836.72
2023-05-12T01:22:58.478Z,98835.94
2023-05-12T01:25:50.172Z,98835.16
2023-05-12T01:28:37.108Z,98843.03
2023-05-12T01:31:24.401Z,98836.34
2023-05-12T01:34:16.017Z,98840.72
2023-05-12T01:37:01.770Z,98839.13
2023-05-12T01:39:48.015Z,98842.69
2023-05-12T01:42:42.419Z,98846.69
2023-05-12T01:45:29.452Z,98843.16
2023-05-12T01:48:15.106Z,98843.91
2023-05-12T01:51:01.880Z,98843.91
2023-05-12T01:53:47.235Z,98842.78
2023-05-12T01:56:32.325Z,98846.00
2023-05-12T01:59:17.675Z,98846.00
2023-05-12T02:02:03.876Z,98851.53
2023-05-12T02:04:50.082Z,98848.00
2023-05-12T02:07:35.670Z,98849.66
2023-05-12T02:10:21.017Z,98853.63
2023-05-12T02:13:07.058Z,98845.28
2023-05-12T02:15:53.154Z,98843.31
2023-05-12T02:18:38.761Z,98853.63
2023-05-12T02:21:25.865Z,98848.06
2023-05-12T02:24:14.686Z,98848.06
2023-05-12T02:27:00.478Z,98848.06
2023-05-12T02:29:45.846Z,98846.16
2023-05-12T02:32:30.922Z,98848.94
2023-05-12T02:35:16.327Z,98840.25
2023-05-12T02:38:01.583Z,98844.25
2023-05-12T02:40:47.723Z,98844.25
2023-05-12T02:43:33.727Z,98843.03
2023-05-12T02:46:19.115Z,98841.13
2023-05-12T02:49:04.495Z,98848.22
2023-05-12T02:51:50.042Z,98840.31
2023-05-12T02:54:35.287Z,98839.56
2023-05-12T02:57:20.634Z,98843.56
2023-05-12T03:00:06.793Z,98841.97
2023-05-12T03:02:55.142Z,98839.19
2023-05-12T03:05:40.453Z,98842.44
2023-05-12T03:08:25.675Z,98839.66
2023-05-12T03:11:10.913Z,98845.19
2023-05-12T03:13:56.188Z,98842.84
2023-05-12T03:16:41.357Z,98851.19
2023-05-12T03:19:29.984Z,98846.81
2023-05-12T03:22:15.459Z,98847.28
2023-05-12T03:25:00.998Z,98852.38
2023-05-12T03:27:47.654Z,98856.81
2023-05-12T03:30:33.285Z,98854.81
2023-05-12T03:33:18.877Z,98858.81
2023-05-12T03:36:04.464Z,98859.22
2023-05-12T03:38:49.960Z,98856.44
2023-05-12T03:41:36.285Z,98857.25
2023-05-12T03:47:29.220Z,98862.81
2023-05-12T03:50:14.891Z,98864.41
2023-05-12T03:53:01.223Z,98862.00
2023-05-12T03:55:46.573Z,98861.22
2023-05-12T03:58:31.951Z,98863.16
2023-05-12T04:01:17.610Z,98867.50
2023-05-12T04:04:03.675Z,98865.06
2023-05-12T04:06:49.270Z,98859.44
2023-05-12T04:09:34.733Z,98864.53
2023-05-12T04:12:20.447Z,98866.47
2023-05-12T04:15:06.818Z,98862.47
2023-05-12T04:17:52.517Z,98862.81
2023-05-12T04:20:38.088Z,98870.28
2023-05-12T04:23:23.883Z,98876.66
2023-05-12T04:26:09.455Z,98871.00
2023-05-12T04:28:54.963Z,98865.44
2023-05-12T04:31:40.849Z,98870.56
2023-05-12T04:34:27.222Z,98873.25
2023-05-12T04:37:13.705Z,98862.84
2023-05-12T04:40:00.150Z,98873.09
2023-05-12T04:42:46.565Z,98874.66
2023-05-12T04:45:33.675Z,98871.00
2023-05-12T04:48:19.324Z,98876.91
2023-05-12T04:51:04.721Z,98874.13
2023-05-12T04:53:50.027Z,98873.72
2023-05-12T04:56:36.278Z,98878.50
2023-05-12T04:59:21.957Z,98872.94
2023-05-12T05:02:12.060Z,98878.91
2023-05-12T05:04:57.626Z,98875.34
2023-05-12T05:07:44.009Z,98883.59
2023-05-12T05:10:30.253Z,98874.13
2023-05-12T05:13:16.585Z,98873.72
2023-05-12T05:16:02.292Z,98880.81
2023-05-12T05:18:48.645Z,98879.63
2023-05-12T05:21:34.640Z,98882.03
2023-05-12T05:24:20.252Z,98890.38
2023-05-12T05:27:05.658Z,98890.81
2023-05-12T05:29:51.152Z,98890.81
2023-05-12T05:32:37.397Z,98894.47
2023-05-12T05:35:22.929Z,98886.53
2023-05-12T05:38:10.784Z,98884.22
2023-05-12T05:40:56.589Z,98887.41
2023-05-12T05:43:43.946Z,98893.41
2023-05-12T05:46:29.803Z,98894.63
2023-05-12T05:49:15.059Z,98898.59
2023-05-12T05:52:00.449Z,98903.38
2023-05-12T05:54:46.460Z,98899.84
2023-05-12T05:57:34.485Z,98898.25
2023-05-12T06:00:21.367Z,98907.38
2023-05-12T06:03:10.045Z,98907.81
2023-05-12T06:05:55.127Z,98906.22
2023-05-12T06:08:40.794Z,98904.69
2023-05-12T06:11:25.954Z,98904.31
2023-05-12T06:14:11.757Z,98909.09
2023-05-12T06:16:57.397Z,98908.34
2023-05-12T06:19:44.043Z,98905.56
2023-05-12T06:22:29.330Z,98913.53
2023-05-12T06:25:14.697Z,98906.75
2023-05-12T06:28:00.045Z,98908.41
2023-05-12T06:30:46.397Z,98911.97
2023-05-12T06:33:31.520Z,98911.59
2023-05-12T06:36:16.938Z,98910.41
2023-05-12T06:39:02.120Z,98917.97
2023-05-12T06:41:47.390Z,98919.94
2023-05-12T06:44:41.743Z,98915.59
2023-05-12T06:47:27.969Z,98910.03
2023-05-12T06:50:17.129Z,98915.25
2023-05-12T06:53:02.645Z,98914.03
2023-05-12T06:55:48.497Z,98918.03
2023-05-12T06:58:34.393Z,98917.25
2023-05-12T07:01:20.016Z,98914.47
2023-05-12T07:04:05.326Z,98912.47
2023-05-12T07:06:50.725Z,98910.91
2023-05-12T07:09:36.167Z,98908.47
2023-05-12T07:12:21.522Z,98913.69
2023-05-12T07:15:08.451Z,98912.81
2023-05-12T07:17:55.457Z,98909.69
2023-05-12T07:20:41.174Z,98906.91
2023-05-12T07:23:26.778Z,98902.91
2023-05-12T07:26:12.474Z,98918.38
2023-05-12T07:29:00.568Z,98911.59
2023-05-12T07:31:46.450Z,98905.25
2023-05-12T07:34:33.850Z,98904.84
2023-05-12T07:37:19.391Z,98911.19
2023-05-12T07:40:05.200Z,98908.41
2023-05-12T07:42:50.966Z,98906.84
2023-05-12T07:45:36.624Z,98913.53
2023-05-12T07:48:22.442Z,98908.41
2023-05-12T07:51:08.842Z,98908.41
2023-05-12T07:53:55.323Z,98913.19
2023-05-12T07:56:40.753Z,98911.59
2023-05-12T07:59:26.052Z,98908.81
2023-05-12T08:02:11.500Z,98913.19
2023-05-12T08:04:56.705Z,98914.72
2023-05-12T08:07:43.921Z,98913.59
2023-05-12T08:10:30.003Z,98912.06
2023-05-12T08:13:15.457Z,98906.91
2023-05-12T08:16:00.785Z,98912.06
2023-05-12T08:18:46.017Z,98910.91
2023-05-12T08:21:31.745Z,98913.69
2023-05-12T08:24:17.060Z,98915.66
2023-05-12T08:27:02.221Z,98916.47
2023-05-12T08:29:47.573Z,98910.91
2023-05-12T08:32:33.041Z,98914.13
2023-05-12T08:35:18.925Z,98914.91
2023-05-12T08:38:04.741Z,98913.34
2023-05-12T08:41:05.086Z,98913.34
2023-05-12T08:43:52.116Z,98920.88
2023-05-12T08:46:38.315Z,98925.66
2023-05-12T08:49:26.742Z,98916.13
2023-05-12T08:52:13.502Z,98918.09
2023-05-12T08:55:00.090Z,98917.31
2023-05-12T08:57:48.426Z,98920.09
2023-05-12T09:00:36.136Z,98917.31
2023-05-12T09:03:22.430Z,98926.09
2023-05-12T09:06:08.977Z,98915.75
2023-05-12T09:08:55.068Z,98920.53
2023-05-12T09:11:42.684Z,98919.75
2023-05-12T09:14:31.152Z,98922.16
2023-05-12T09:17:16.671Z,98918.19
2023-05-12T09:20:03.448Z,98915.06
2023-05-12T09:22:48.683Z,98920.59
2023-05-12T09:25:33.947Z,98915.81
2023-05-12T09:28:19.230Z,98920.59
2023-05-12T09:31:22.589Z,98917.47
2023-05-12T09:34:09.134Z,98921.47
2023-05-12T09:37:03.617Z,98919.13
2023-05-12T09:39:59.709Z,98922.31
2023-05-12T09:42:46.587Z,98922.31
2023-05-12T09:45:39.070Z,98925.09
2023-05-12T09:48:26.889Z,98922.31
2023-05-12T09:51:17.645Z,98929.09
2023-05-12T09:54:03.571Z,98921.53
2023-05-12T09:56:50.838Z,98919.97
2023-05-12T09:59:38.497Z,98919.19
2023-05-12T10:02:25.609Z,98913.63
2023-05-12T10:05:22.447Z,98913.63
2023-05-12T10:08:08.907Z,98919.97
2023-05-12T10:10:58.142Z,98924.75
2023-05-12T10:13:43.743Z,98913.63
2023-05-12T10:16:29.895Z,98919.97
2023-05-12T10:19:15.673Z,98905.75
2023-05-12T10:22:01.859Z,98916.41
2023-05-12T10:24:48.789Z,98912.09
2023-05-12T10:27:34.826Z,98923.19
2023-05-12T10:30:21.094Z,98918.41
2023-05-12T10:33:10.040Z,98917.63
2023-05-12T10:35:55.863Z,98914.06
2023-05-12T10:38:41.252Z,98917.63
2023-05-12T10:41:35.194Z,98912.84
2023-05-12T10:44:28.025Z,98922.41
2023-05-12T10:47:17.336Z,98912.09
2023-05-12T10:50:03.213Z,98907.31
2023-05-12T10:52:56.006Z,98910.84
2023-05-12T10:55:47.933Z,98906.88
2023-05-12T10:58:34.335Z,98914.41
2023-05-12T11:01:25.417Z,98913.63
2023-05-12T11:04:17.089Z,98915.22
2023-05-12T11:07:06.020Z,98920.75
2023-05-12T11:09:58.295Z,98918.75
2023-05-12T11:12:46.478Z,98918.00
2023-05-12T11:15:31.651Z,98920.75
2023-05-12T11:18:21.783Z,98912.44
2023-05-12T11:21:12.213Z,98908.84
2023-05-12T11:23:59.166Z,98912.44
2023-05-12T11:26:44.941Z,98916.41
2023-05-12T11:29:31.784Z,98910.84
2023-05-12T11:32:17.616Z,98908.84
2023-05-12T11:35:14.782Z,98919.63
2023-05-12T11:38:00.559Z,98918.41
2023-05-12T11:40:47.557Z,98914.00
2023-05-12T11:43:32.851Z,98922.31
2023-05-12T11:46:30.916Z,98922.72
2023-05-12T11:49:16.217Z,98917.63
2023-05-12T11:52:02.837Z,98925.59
2023-05-12T11:54:52.093Z,98926.81
2023-05-12T11:57:37.825Z,98922.81
2023-05-12T12:00:31.164Z,98919.28
2023-05-12T12:03:16.727Z,98931.16
2023-05-12T12:06:03.704Z,98922.41
2023-05-12T12:08:56.835Z,98928.75
2023-05-12T12:11:42.388Z,98929.50
2023-05-12T12:14:28.064Z,98937.84
2023-05-12T12:17:13.733Z,98936.63
2023-05-12T12:19:59.634Z,98933.84
2023-05-12T12:22:45.523Z,98933.84
2023-05-12T12:25:31.204Z,98940.97
2023-05-12T12:28:16.967Z,98939.75
2023-05-12T12:31:03.194Z,98940.56
2023-05-12T12:33:48.810Z,98935.69
2023-05-12T12:36:34.564Z,98923.03
2023-05-12T12:39:20.155Z,98923.38
2023-05-12T12:42:05.758Z,98932.44
2023-05-12T12:44:52.066Z,98935.56
2023-05-12T12:47:39.055Z,98937.47
2023-05-12T12:50:25.852Z,98941.38
2023-05-12T12:53:12.885Z,98941.31
2023-05-12T12:55:58.569Z,98941.22
2023-05-12T12:58:44.056Z,98939.56
2023-05-12T13:01:29.685Z,98945.06
2023-05-12T13:04:15.329Z,98940.63
2023-05-12T13:07:00.580Z,98941.75
2023-05-12T13:09:46.285Z,98944.47
2023-05-12T13:12:32.564Z,98939.28
2023-05-12T13:15:19.497Z,98947.59
2023-05-12T13:18:05.514Z,98941.19
2023-05-12T13:20:51.548Z,98937.19
2023-05-12T13:23:37.379Z,98937.56
2023-05-12T13:26:23.566Z,98932.34
2023-05-12T13:29:08.869Z,98933.50
2023-05-12T13:31:54.682Z,98934.63
2023-05-12T13:34:40.388Z,98942.88
2023-05-12T13:37:27.366Z,98932.47
2023-05-12T13:40:13.270Z,98934.81
2023-05-12T13:42:59.468Z,98936.72
2023-05-12T13:45:44.807Z,98935.06
2023-05-12T13:48:29.983Z,98937.41
2023-05-12T13:51:15.502Z,98939.34
2023-05-12T13:54:01.028Z,98932.13
2023-05-12T13:56:46.264Z,98933.25
2023-05-12T13:59:32.027Z,98938.72
2023-05-12T14:02:18.141Z,98934.72
2023-05-12T14:05:04.038Z,98935.50
2023-05-12T14:07:49.684Z,98936.63
2023-05-12T14:10:35.476Z,98941.78
2023-05-12T14:13:20.819Z,98942.19
2023-05-12T14:16:06.590Z,98939.41
2023-05-12T14:18:52.320Z,98936.22
2023-05-12T14:21:40.999Z,98943.31
2023-05-12T14:24:27.028Z,98939.69
2023-05-12T14:27:12.158Z,98933.66
2023-05-12T14:29:57.732Z,98937.59
2023-05-12T14:32:46.574Z,98939.94
2023-05-12T14:35:32.445Z,98937.50
2023-05-12T14:38:18.228Z,98943.50
2023-05-12T14:41:04.064Z,98942.63
2023-05-12T14:43:50.539Z,98951.34
2023-05-12T14:46:37.643Z,98946.13
2023-05-12T14:49:23.450Z,98951.69
2023-05-12T14:52:08.968Z,98972.81
2023-05-12T14:54:54.761Z,98974.78
2023-05-12T14:57:41.457Z,98978.38
2023-05-12T15:00:27.113Z,98976.38
2023-05-12T15:03:13.556Z,98979.91
2023-05-12T15:08:48.927Z,98980.69
2023-05-12T15:11:34.614Z,98982.28
2023-05-12T15:14:20.100Z,98979.38
2023-05-12T15:17:05.596Z,98970.63
2023-05-12T15:19:51.256Z,98969.38
2023-05-12T15:22:37.401Z,98973.75
2023-05-12T15:25:23.228Z,98955.81
2023-05-12T15:28:08.872Z,98953.84
2023-05-12T15:30:58.161Z,98955.47
2023-05-12T15:33:44.119Z,98954.34
2023-05-12T15:36:30.985Z,98956.34
2023-05-12T15:39:17.054Z,98955.47
2023-05-12T15:42:03.997Z,98954.63
2023-05-12T15:44:51.098Z,98959.41
2023-05-12T15:47:36.706Z,98954.97
2023-05-12T15:50:22.980Z,98952.19
2023-05-12T15:53:09.976Z,98945.41
2023-05-12T15:56:04.036Z,98942.97
2023-05-12T15:58:49.428Z,98944.09
2023-05-12T16:01:34.844Z,98940.09
2023-05-12T16:04:20.194Z,98944.84
2023-05-12T16:07:05.603Z,98940.44
2023-05-12T16:09:51.016Z,98940.00
2023-05-12T16:12:37.334Z,98938.44
2023-05-12T16:15:22.861Z,98934.78
2023-05-12T16:18:11.117Z,98933.66
2023-05-12T16:20:56.928Z,98949.91
2023-05-12T16:23:42.726Z,98959.81
2023-05-12T16:26:27.851Z,98962.94
2023-05-12T16:29:13.785Z,98982.97
2023-05-12T16:31:59.365Z,98998.88
2023-05-12T16:34:45.115Z,98996.09
2023-05-12T16:37:30.666Z,99003.63
2023-05-12T16:40:16.036Z,98995.28
2023-05-12T16:43:01.298Z,98977.38
2023-05-12T16:45:46.690Z,98953.13
2023-05-12T16:48:34.858Z,98948.34
2023-05-12T16:51:20.455Z,98958.25
2023-05-12T16:54:06.256Z,98967.38
2023-05-12T16:56:51.548Z,98959.81
2023-05-12T16:59:38.460Z,98977.28
2023-05-12T17:02:23.938Z,98986.88
2023-05-12T17:05:10.058Z,98992.84
2023-05-12T17:07:55.644Z,98999.66
2023-05-12T17:10:40.957Z,98997.28
2023-05-12T17:13:26.319Z,98998.94
2023-05-12T17:16:11.993Z,99009.31
2023-05-12T17:21:48.219Z,99012.88
2023-05-12T17:24:33.521Z,99012.16
2023-05-12T17:27:19.138Z,99016.69
2023-05-12T17:30:05.180Z,99017.47
2023-05-12T17:32:50.694Z,99023.81
2023-05-12T17:35:36.552Z,99019.81
2023-05-12T17:38:22.010Z,99020.69
2023-05-12T17:41:07.521Z,99013.56
2023-05-12T17:43:53.756Z,99017.91
2023-05-12T17:46:39.507Z,99019.13
2023-05-12T17:49:24.834Z,99021.91
2023-05-12T17:52:10.252Z,99016.69
2023-05-12T17:54:58.476Z,99012.28
2023-05-12T17:57:44.127Z,99015.47
2023-05-12T18:00:29.389Z,99020.69
2023-05-12T18:03:15.315Z,99020.69
2023-05-12T18:06:00.761Z,99023.13
2023-05-12T18:08:46.797Z,99021.91
2023-05-12T18:11:34.408Z,99017.91
2023-05-12T18:14:20.406Z,99025.38
2023-05-12T18:17:06.435Z,99014.25
2023-05-12T18:19:52.054Z,99013.03
2023-05-12T18:22:37.893Z,99019.81
2023-05-12T18:25:23.573Z,99010.78
2023-05-12T18:28:09.789Z,99021.13
2023-05-12T18:30:58.068Z,99008.44
2023-05-12T18:33:49.873Z,99014.78
2023-05-12T18:36:35.386Z,99017.22
2023-05-12T18:39:20.997Z,99024.78
2023-05-12T18:42:06.476Z,99028.69
2023-05-12T18:44:52.401Z,99026.44
2023-05-12T18:47:38.088Z,99024.00
2023-05-12T18:50:23.684Z,99032.78
2023-05-12T18:53:09.367Z,99033.19
2023-05-12T18:55:54.680Z,99035.97
2023-05-12T18:58:39.984Z,99035.28
2023-05-12T19:01:25.281Z,99040.84
2023-05-12T19:04:10.767Z,99046.06
2023-05-12T19:06:56.225Z,99048.50
2023-05-12T19:09:42.435Z,99052.13
2023-05-12T19:12:27.688Z,99054.91
2023-05-12T19:15:13.060Z,99056.13
2023-05-12T19:17:58.520Z,99057.78
2023-05-12T19:20:43.799Z,99058.22
2023-05-12T19:23:30.690Z,99063.00
2023-05-12T19:26:16.153Z,99070.56
2023-05-12T19:29:02.115Z,99071.41
2023-05-12T19:31:47.718Z,99079.41
2023-05-12T19:34:32.905Z,99077.84
2023-05-12T19:37:19.358Z,99076.72
2023-05-12T19:40:05.418Z,99085.06
2023-05-12T19:42:52.987Z,99093.03
2023-05-12T19:45:39.178Z,99095.88
2023-05-12T19:48:24.851Z,99098.66
2023-05-12T19:51:10.604Z,99102.66
2023-05-12T19:53:56.055Z,99107.88
2023-05-12T19:56:41.461Z,99104.31
2023-05-12T19:59:26.878Z,99106.75
2023-05-12T20:02:14.209Z,99111.13
2023-05-12T20:05:00.618Z,99113.13
2023-05-12T20:07:45.931Z,99115.13
2023-05-12T20:10:31.328Z,99117.56
2023-05-12T20:13:16.498Z,99114.00
2023-05-12T20:16:01.987Z,99113.22
2023-05-12T20:18:47.538Z,99122.75
2023-05-12T20:21:32.786Z,99118.84
2023-05-12T20:24:18.248Z,99120.84
2023-05-12T20:27:03.629Z,99128.84
2023-05-12T20:29:49.505Z,99126.88
2023-05-12T20:32:34.817Z,99128.44
2023-05-12T20:35:20.726Z,99128.09
2023-05-12T20:38:07.061Z,99138.84
2023-05-12T20:40:52.334Z,99136.84
2023-05-12T20:43:37.694Z,99132.16
2023-05-12T20:46:23.144Z,99133.38
2023-05-12T20:49:09.048Z,99129.00
2023-05-12T20:51:54.354Z,99126.66
2023-05-12T20:54:39.570Z,99127.09
2023-05-12T20:57:26.146Z,99123.53
2023-05-12T21:00:12.280Z,99128.72
2023-05-12T21:02:58.772Z,99129.16
2023-05-12T21:05:47.759Z,99130.34
2023-05-12T21:08:33.263Z,99133.56
2023-05-12T21:11:19.001Z,99138.75
2023-05-12T21:14:05.049Z,99142.31
2023-05-12T21:16:50.377Z,99136.03
2023-05-12T21:19:40.706Z,99138.81
2023-05-12T21:22:26.771Z,99140.81
2023-05-12T21:25:12.116Z,99137.69
2023-05-12T21:27:57.259Z,99141.69
2023-05-12T21:30:42.723Z,99136.97
2023-05-12T21:33:28.135Z,99138.97
2023-05-12T21:36:13.603Z,99136.19
2023-05-12T21:38:58.879Z,99131.03
2023-05-12T21:41:44.109Z,99139.38
2023-05-12T21:44:29.964Z,99139.38
2023-05-12T21:47:15.474Z,99150.50
2023-05-12T21:50:01.015Z,99142.16
2023-05-12T21:52:46.300Z,99151.28
2023-05-12T21:55:31.603Z,99145.75
2023-05-12T21:58:16.940Z,99154.06
2023-05-12T22:01:02.275Z,99157.25
2023-05-12T22:03:47.556Z,99158.03
2023-05-12T22:06:32.828Z,99168.38
2023-05-12T22:09:18.488Z,99168.38
2023-05-12T22:12:04.859Z,99164.81
2023-05-12T22:14:50.176Z,99169.56
2023-05-12T22:17:35.902Z,99170.78
2023-05-12T22:20:23.218Z,99166.47
2023-05-12T22:23:08.832Z,99166.47
2023-05-12T22:25:54.008Z,99166.47
2023-05-12T22:28:39.338Z,99167.66
2023-05-12T22:31:25.155Z,99179.97
2023-05-12T22:34:10.585Z,99179.19
2023-05-12T22:36:55.928Z,99183.94
2023-05-12T22:39:41.302Z,99186.72
2023-05-12T22:42:26.606Z,99178.03
2023-05-12T22:45:12.074Z,99186.38
2023-05-12T22:47:57.336Z,99179.25
2023-05-12T22:50:42.593Z,99177.66
2023-05-12T22:53:27.837Z,99179.25
2023-05-12T22:56:13.000Z,99171.34
2023-05-12T22:58:58.298Z,99178.47
2023-05-12T23:01:43.881Z,99171.34
2023-05-12T23:04:29.448Z,99180.88
2023-05-12T23:07:14.549Z,99190.00
2023-05-12T23:09:59.875Z,99198.34
2023-05-12T23:12:45.159Z,99197.56
2023-05-12T23:15:30.519Z,99192.00
2023-05-12T23:18:15.935Z,99197.56
2023-05-12T23:21:01.287Z,99192.78
2023-05-12T23:23:46.367Z,99192.41
2023-05-12T23:26:31.914Z,99194.41
2023-05-12T23:29:17.476Z,99186.84
2023-05-12T23:32:03.494Z,99189.63
2023-05-12T23:34:49.698Z,99198.38
2023-05-12T23:37:35.013Z,99199.19
2023-05-12T23:40:20.757Z,99205.53
2023-05-12T23:43:06.746Z,99200.38
2023-05-12T23:45:52.195Z,99199.19
2023-05-12T23:48:37.389Z,99196.81
2023-05-12T23:51:23.713Z,99196.81
2023-05-12T23:54:09.193Z,99202.38
2023-05-12T23:56:54.386Z,99203.16
2023-05-12T23:59:39.685Z,99200.78
